createdAt,value
2017-09-05T00:00:40.484Z,22.6
2017-09-05T00:01:41.376Z,22.7
2017-09-05T00:02:42.024Z,22.6
2017-09-05T00:03:42.664Z,22.6
2017-09-05T00:04:43.306Z,22.6
2017-09-05T00:05:43.949Z,22.7
2017-09-05T00:06:44.591Z,22.7
2017-09-05T00:07:45.236Z,22.6
2017-09-05T00:08:45.876Z,22.6
2017-09-05T00:09:46.518Z,22.7
2017-09-05T00:10:47.161Z,22.7
2017-09-05T00:11:47.802Z,22.6
2017-09-05T00:12:48.444Z,22.6
2017-09-05T00:13:49.088Z,22.7
2017-09-05T00:14:49.727Z,22.7
2017-09-05T00:15:50.368Z,22.6
2017-09-05T00:16:51.262Z,22.6
2017-09-05T00:17:51.903Z,22.6
2017-09-05T00:18:52.548Z,22.7
2017-09-05T00:19:53.192Z,22.5
2017-09-05T00:20:53.835Z,22.6
2017-09-05T00:21:54.477Z,22.6
2017-09-05T00:22:55.120Z,22.6
2017-09-05T00:23:55.765Z,22.6
2017-09-05T00:24:56.408Z,22.6
2017-09-05T00:25:57.049Z,22.6
2017-09-05T00:26:57.693Z,22.6
2017-09-05T00:27:58.335Z,22.6
2017-09-05T00:28:58.978Z,22.5
2017-09-05T00:29:59.621Z,22.5
2017-09-05T00:31:00.265Z,22.7
2017-09-05T00:32:01.157Z,22.6
2017-09-05T00:33:01.799Z,22.6
2017-09-05T00:34:02.443Z,22.6
2017-09-05T00:35:03.084Z,22.5
2017-09-05T00:36:03.726Z,22.6
2017-09-05T00:37:04.369Z,22.6
2017-09-05T00:38:05.012Z,22.6
2017-09-05T00:39:05.656Z,22.5
2017-09-05T00:40:06.299Z,22.5
2017-09-05T00:41:06.940Z,22.5
2017-09-05T00:42:07.584Z,22.5
2017-09-05T00:43:08.228Z,22.5
2017-09-05T00:44:08.871Z,22.5
2017-09-05T00:45:09.514Z,22.5
2017-09-05T00:46:10.159Z,22.4
2017-09-05T00:47:10.802Z,22.6
2017-09-05T00:48:11.444Z,22.5
2017-09-05T00:49:12.087Z,22.5
2017-09-05T00:50:12.729Z,22.4
2017-09-05T00:51:13.372Z,22.4
2017-09-05T00:52:14.052Z,22.5
2017-09-05T00:53:14.693Z,22.4
2017-09-05T00:54:15.335Z,22.5
2017-09-05T00:55:15.978Z,22.4
2017-09-05T00:56:16.619Z,22.5
2017-09-05T00:57:17.263Z,22.4
2017-09-05T00:58:17.911Z,22.5
2017-09-05T00:59:18.553Z,22.4
2017-09-05T01:00:19.195Z,22.5
2017-09-05T01:01:19.841Z,22.5
2017-09-05T01:02:20.684Z,22.4
2017-09-05T01:03:21.325Z,22.4
2017-09-05T01:04:21.966Z,22.5
2017-09-05T01:05:22.609Z,22.4
2017-09-05T01:06:23.250Z,22.5
2017-09-05T01:07:23.891Z,22.4
2017-09-05T01:08:24.534Z,22.4
2017-09-05T01:09:25.176Z,22.4
2017-09-05T01:10:25.820Z,22.5
2017-09-05T01:11:26.472Z,22.4
2017-09-05T01:12:27.105Z,22.4
2017-09-05T01:13:27.747Z,22.5
2017-09-05T01:14:28.392Z,22.5
2017-09-05T01:15:29.034Z,22.6
2017-09-05T01:16:29.678Z,22.4
2017-09-05T01:17:30.420Z,22.5
2017-09-05T01:18:31.061Z,22.5
2017-09-05T01:19:31.701Z,22.5
2017-09-05T01:20:32.343Z,22.4
2017-09-05T01:21:32.983Z,22.5
2017-09-05T01:22:33.628Z,22.5
2017-09-05T01:23:34.269Z,22.5
2017-09-05T01:24:34.913Z,22.5
2017-09-05T01:25:35.552Z,22.5
2017-09-05T01:26:36.196Z,22.5
2017-09-05T01:27:36.842Z,22.4
2017-09-05T01:28:37.482Z,22.4
2017-09-05T01:29:38.124Z,22.5
2017-09-05T01:30:38.768Z,22.5
2017-09-05T01:31:39.411Z,22.5
2017-09-05T01:32:40.155Z,22.5
2017-09-05T01:33:40.797Z,22.5
2017-09-05T01:34:41.439Z,22.4
2017-09-05T01:35:42.081Z,22.5
2017-09-05T01:36:42.723Z,22.5
2017-09-05T01:37:43.364Z,22.5
2017-09-05T01:38:44.008Z,22.5
2017-09-05T01:39:44.648Z,22.5
2017-09-05T01:40:45.291Z,22.5
2017-09-05T01:41:45.933Z,22.5
2017-09-05T01:42:46.576Z,22.4
2017-09-05T01:43:47.227Z,22.4
2017-09-05T01:44:47.864Z,22.5
2017-09-05T01:45:48.506Z,22.5
2017-09-05T01:46:49.151Z,22.5
2017-09-05T01:47:50.045Z,22.5
2017-09-05T01:48:50.688Z,22.6
2017-09-05T01:49:51.329Z,22.5
2017-09-05T01:50:51.970Z,22.4
2017-09-05T01:51:52.610Z,22.4
2017-09-05T01:52:53.253Z,22.5
2017-09-05T01:53:53.894Z,22.5
2017-09-05T01:54:54.535Z,22.4
2017-09-05T01:55:55.176Z,22.5
2017-09-05T01:56:55.819Z,22.4
2017-09-05T01:57:56.461Z,22.5
2017-09-05T01:58:57.102Z,22.4
2017-09-05T01:59:57.743Z,22.5
2017-09-05T02:00:58.385Z,22.4
2017-09-05T02:01:59.027Z,22.4
2017-09-05T02:02:59.919Z,22.4
2017-09-05T02:04:00.559Z,22.5
2017-09-05T02:05:01.202Z,22.4
2017-09-05T02:06:01.844Z,22.3
2017-09-05T02:07:02.489Z,22.3
2017-09-05T02:08:03.132Z,22.4
2017-09-05T02:09:03.774Z,22.4
2017-09-05T02:10:04.415Z,22.4
2017-09-05T02:11:05.056Z,22.3
2017-09-05T02:12:05.710Z,22.4
2017-09-05T02:13:06.368Z,22.5
2017-09-05T02:14:07.011Z,22.4
2017-09-05T02:15:07.656Z,22.4
2017-09-05T02:16:08.294Z,22.4
2017-09-05T02:17:08.936Z,22.4
2017-09-05T02:18:09.674Z,22.3
2017-09-05T02:19:10.317Z,22.5
2017-09-05T02:20:10.963Z,22.4
2017-09-05T02:21:11.610Z,22.4
2017-09-05T02:22:12.254Z,22.4
2017-09-05T02:23:12.896Z,22.4
2017-09-05T02:24:13.538Z,22.4
2017-09-05T02:25:14.187Z,22.3
2017-09-05T02:26:14.825Z,22.4
2017-09-05T02:27:15.466Z,22.4
2017-09-05T02:28:16.109Z,22.4
2017-09-05T02:29:16.751Z,22.3
2017-09-05T02:30:17.394Z,22.4
2017-09-05T02:31:18.035Z,22.4
2017-09-05T02:32:18.700Z,22.4
2017-09-05T02:33:19.585Z,22.4
2017-09-05T02:34:20.228Z,22.5
2017-09-05T02:35:20.869Z,22.5
2017-09-05T02:36:21.512Z,22.3
2017-09-05T02:37:22.153Z,22.5
2017-09-05T02:38:22.795Z,22.4
2017-09-05T02:39:23.438Z,22.4
2017-09-05T02:40:24.080Z,22.5
2017-09-05T02:41:24.721Z,22.3
2017-09-05T02:42:25.386Z,22.4
2017-09-05T02:43:26.006Z,22.4
2017-09-05T02:44:26.647Z,22.4
2017-09-05T02:45:27.288Z,22.4
2017-09-05T02:46:27.930Z,22.4
2017-09-05T02:47:28.572Z,22.3
2017-09-05T02:48:29.464Z,22.4
2017-09-05T02:49:30.108Z,22.4
2017-09-05T02:50:30.751Z,22.4
2017-09-05T02:51:31.393Z,22.5
2017-09-05T02:52:32.036Z,22.3
2017-09-05T02:53:32.676Z,22.4
2017-09-05T02:54:33.319Z,22.3
2017-09-05T02:55:33.962Z,22.4
2017-09-05T02:56:34.609Z,22.4
2017-09-05T02:57:35.250Z,22.4
2017-09-05T02:58:35.891Z,22.4
2017-09-05T02:59:36.536Z,22.4
2017-09-05T03:00:37.177Z,22.4
2017-09-05T03:01:37.817Z,22.4
2017-09-05T03:02:38.466Z,22.4
2017-09-05T03:03:39.353Z,22.4
2017-09-05T03:04:39.998Z,22.4
2017-09-05T03:05:40.639Z,22.3
2017-09-05T03:06:41.282Z,22.3
2017-09-05T03:07:41.924Z,22.3
2017-09-05T03:08:42.567Z,22.4
2017-09-05T03:09:43.210Z,22.4
2017-09-05T03:10:43.852Z,22.4
2017-09-05T03:11:44.494Z,22.4
2017-09-05T03:12:45.136Z,22.4
2017-09-05T03:13:45.776Z,22.3
2017-09-05T03:14:46.417Z,22.4
2017-09-05T03:15:47.058Z,22.4
2017-09-05T03:16:47.703Z,22.3
2017-09-05T03:17:48.343Z,22.3
2017-09-05T03:18:49.135Z,22.4
2017-09-05T03:19:49.777Z,22.4
2017-09-05T03:20:50.419Z,22.4
2017-09-05T03:21:51.062Z,22.4
2017-09-05T03:22:51.704Z,22.4
2017-09-05T03:23:52.347Z,22.4
2017-09-05T03:24:52.992Z,22.4
2017-09-05T03:25:53.634Z,22.4
2017-09-05T03:26:54.276Z,22.4
2017-09-05T03:27:54.918Z,22.3
2017-09-05T03:28:55.558Z,22.4
2017-09-05T03:29:56.198Z,22.4
2017-09-05T03:30:56.841Z,22.4
2017-09-05T03:31:57.488Z,22.4
2017-09-05T03:32:58.124Z,22.3
2017-09-05T03:33:58.867Z,22.3
2017-09-05T03:34:59.512Z,22.4
2017-09-05T03:36:00.155Z,22.4
2017-09-05T03:37:00.798Z,22.4
2017-09-05T03:38:01.444Z,22.4
2017-09-05T03:39:02.092Z,22.4
2017-09-05T03:40:02.733Z,22.3
2017-09-05T03:41:03.375Z,22.3
2017-09-05T03:42:04.018Z,22.4
2017-09-05T03:43:04.662Z,22.3
2017-09-05T03:44:05.306Z,22.3
2017-09-05T03:45:05.949Z,22.3
2017-09-05T03:46:06.591Z,22.3
2017-09-05T03:47:07.243Z,22.4
2017-09-05T03:48:07.877Z,22.3
2017-09-05T03:49:08.620Z,22.3
2017-09-05T03:50:09.262Z,22.3
2017-09-05T03:51:09.902Z,22.4
2017-09-05T03:52:10.578Z,22.4
2017-09-05T03:53:11.222Z,22.4
2017-09-05T03:54:11.864Z,22.3
2017-09-05T03:55:12.508Z,22.3
2017-09-05T03:56:13.150Z,22.3
2017-09-05T03:57:13.793Z,22.3
2017-09-05T03:58:14.440Z,22.4
2017-09-05T03:59:15.080Z,22.4
2017-09-05T04:00:15.726Z,22.4
2017-09-05T04:01:16.366Z,22.3
2017-09-05T04:02:17.009Z,22.3
2017-09-05T04:03:17.652Z,22.3
2017-09-05T04:04:18.400Z,22.3
2017-09-05T04:05:19.043Z,22.3
2017-09-05T04:06:19.685Z,22.3
2017-09-05T04:07:20.326Z,22.3
2017-09-05T04:08:20.966Z,22.3
2017-09-05T04:09:21.609Z,22.4
2017-09-05T04:10:22.254Z,22.3
2017-09-05T04:11:22.893Z,22.4
2017-09-05T04:12:23.533Z,22.3
2017-09-05T04:13:24.178Z,22.3
2017-09-05T04:14:24.820Z,22.3
2017-09-05T04:15:25.463Z,22.3
2017-09-05T04:16:26.106Z,22.3
2017-09-05T04:17:26.748Z,22.3
2017-09-05T04:18:27.394Z,22.3
2017-09-05T04:19:28.134Z,22.3
2017-09-05T04:20:28.775Z,22.3
2017-09-05T04:21:29.417Z,22.3
2017-09-05T04:22:30.058Z,22.4
2017-09-05T04:23:30.701Z,22.3
2017-09-05T04:24:31.343Z,22.4
2017-09-05T04:25:31.987Z,22.4
2017-09-05T04:26:32.627Z,22.3
2017-09-05T04:27:33.271Z,22.3
2017-09-05T04:28:33.915Z,22.4
2017-09-05T04:29:34.561Z,22.4
2017-09-05T04:30:35.203Z,22.3
2017-09-05T04:31:35.845Z,22.3
2017-09-05T04:32:36.486Z,22.3
2017-09-05T04:33:37.130Z,22.3
2017-09-05T04:34:38.022Z,22.3
2017-09-05T04:35:38.662Z,22.3
2017-09-05T04:36:39.303Z,22.3
2017-09-05T04:37:39.949Z,22.3
2017-09-05T04:38:40.587Z,22.3
2017-09-05T04:39:41.229Z,22.3
2017-09-05T04:40:41.873Z,22.3
2017-09-05T04:41:42.513Z,22.3
2017-09-05T04:42:43.160Z,22.3
2017-09-05T04:43:43.800Z,22.3
2017-09-05T04:44:44.443Z,22.3
2017-09-05T04:45:45.085Z,22.3
2017-09-05T04:46:45.729Z,22.3
2017-09-05T04:47:46.371Z,22.3
2017-09-05T04:48:47.014Z,22.4
2017-09-05T04:49:47.906Z,22.3
2017-09-05T04:50:48.548Z,22.3
2017-09-05T04:51:49.187Z,22.3
2017-09-05T04:52:49.828Z,22.3
2017-09-05T04:53:50.474Z,22.3
2017-09-05T04:54:51.110Z,22.3
2017-09-05T04:55:51.755Z,22.3
2017-09-05T04:56:52.396Z,22.2
2017-09-05T04:57:53.040Z,22.3
2017-09-05T04:58:53.688Z,22.3
2017-09-05T04:59:54.325Z,22.2
2017-09-05T05:00:54.967Z,22.3
2017-09-05T05:01:55.610Z,22.3
2017-09-05T05:02:56.250Z,22.3
2017-09-05T05:03:56.897Z,22.2
2017-09-05T05:04:57.683Z,22.3
2017-09-05T05:05:58.329Z,22.3
2017-09-05T05:06:58.965Z,22.3
2017-09-05T05:07:59.607Z,22.3
2017-09-05T05:09:00.256Z,22.3
2017-09-05T05:10:00.890Z,22.2
2017-09-05T05:11:01.530Z,22.3
2017-09-05T05:12:02.175Z,22.3
2017-09-05T05:13:02.817Z,22.3
2017-09-05T05:14:03.461Z,22.2
2017-09-05T05:15:04.104Z,22.3
2017-09-05T05:16:04.746Z,22.2
2017-09-05T05:17:05.390Z,22.3
2017-09-05T05:18:06.032Z,22.2
2017-09-05T05:19:06.674Z,22.3
2017-09-05T05:20:07.568Z,22.3
2017-09-05T05:21:08.209Z,22.2
2017-09-05T05:22:08.850Z,22.2
2017-09-05T05:23:09.492Z,22.3
2017-09-05T05:24:10.283Z,22.2
2017-09-05T05:25:10.924Z,22.3
2017-09-05T05:26:11.567Z,22.3
2017-09-05T05:27:12.209Z,22.3
2017-09-05T05:28:12.855Z,22.3
2017-09-05T05:29:13.501Z,22.2
2017-09-05T05:30:14.147Z,22.3
2017-09-05T05:31:14.784Z,22.3
2017-09-05T05:32:15.480Z,22.2
2017-09-05T05:33:16.124Z,22.3
2017-09-05T05:34:16.763Z,22.2
2017-09-05T05:35:17.412Z,22.3
2017-09-05T05:36:18.053Z,22.2
2017-09-05T05:37:18.695Z,22.2
2017-09-05T05:38:19.337Z,22.3
2017-09-05T05:39:20.228Z,22.3
2017-09-05T05:40:20.872Z,22.2
2017-09-05T05:41:21.515Z,22.2
2017-09-05T05:42:22.159Z,22.3
2017-09-05T05:43:22.801Z,22.3
2017-09-05T05:44:23.445Z,22.2
2017-09-05T05:45:24.089Z,22.2
2017-09-05T05:46:24.731Z,22.2
2017-09-05T05:47:25.372Z,22.3
2017-09-05T05:48:26.015Z,22.2
2017-09-05T05:49:26.657Z,22.3
2017-09-05T05:50:27.302Z,22.3
2017-09-05T05:51:27.944Z,22.2
2017-09-05T05:52:28.586Z,22.2
2017-09-05T05:53:29.228Z,22.3
2017-09-05T05:54:29.972Z,22.2
2017-09-05T05:55:30.617Z,22.3
2017-09-05T05:56:31.811Z,22.2
2017-09-05T05:57:32.450Z,22.3
2017-09-05T05:58:33.093Z,22.3
2017-09-05T05:59:33.735Z,22.3
2017-09-05T06:00:34.377Z,22.3
2017-09-05T06:01:35.018Z,22.2
2017-09-05T06:02:35.661Z,22.2
2017-09-05T06:03:36.304Z,22.3
2017-09-05T06:04:36.947Z,22.2
2017-09-05T06:05:37.588Z,22.2
2017-09-05T06:06:38.230Z,22.2
2017-09-05T06:07:38.972Z,22.3
2017-09-05T06:08:39.615Z,22.2
2017-09-05T06:09:40.406Z,22.2
2017-09-05T06:10:41.047Z,22.3
2017-09-05T06:11:41.690Z,22.3
2017-09-05T06:12:42.333Z,22.3
2017-09-05T06:13:43.078Z,22.3
2017-09-05T06:14:43.719Z,22.2
2017-09-05T06:15:44.561Z,22.3
2017-09-05T06:16:45.203Z,22.3
2017-09-05T06:17:45.846Z,22.3
2017-09-05T06:18:46.489Z,22.3
2017-09-05T06:19:47.131Z,22.3
2017-09-05T06:20:47.773Z,22.2
2017-09-05T06:21:48.564Z,22.3
2017-09-05T06:22:49.204Z,22.3
2017-09-05T06:23:49.846Z,22.3
2017-09-05T06:24:50.487Z,22.3
2017-09-05T06:25:51.129Z,22.2
2017-09-05T06:26:51.770Z,22.3
2017-09-05T06:27:52.414Z,22.4
2017-09-05T06:28:53.056Z,22.3
2017-09-05T06:29:53.698Z,22.3
2017-09-05T06:30:54.340Z,22.4
2017-09-05T06:31:54.982Z,22.3
2017-09-05T06:32:55.626Z,22.3
2017-09-05T06:33:56.269Z,22.3
2017-09-05T06:34:56.912Z,22.3
2017-09-05T06:35:57.556Z,22.2
2017-09-05T06:36:58.347Z,22.3
2017-09-05T06:37:58.988Z,22.3
2017-09-05T06:38:59.628Z,22.3
2017-09-05T06:40:00.270Z,22.3
2017-09-05T06:41:00.913Z,22.3
2017-09-05T06:42:01.554Z,22.3
2017-09-05T06:43:02.197Z,22.3
2017-09-05T06:44:02.844Z,22.4
2017-09-05T06:45:03.484Z,22.3
2017-09-05T06:46:04.527Z,22.3
2017-09-05T06:47:05.171Z,22.3
2017-09-05T06:48:05.914Z,22.3
2017-09-05T06:49:06.655Z,22.3
2017-09-05T06:50:07.298Z,22.3
2017-09-05T06:51:07.937Z,22.3
2017-09-05T06:52:08.606Z,22.3
2017-09-05T06:53:09.498Z,22.3
2017-09-05T06:54:10.139Z,22.3
2017-09-05T06:55:10.784Z,22.3
2017-09-05T06:56:11.427Z,22.4
2017-09-05T06:57:12.071Z,22.3
2017-09-05T06:58:12.713Z,22.3
2017-09-05T06:59:13.356Z,22.3
2017-09-05T07:00:13.999Z,22.3
2017-09-05T07:01:14.742Z,22.4
2017-09-05T07:02:15.383Z,22.4
2017-09-05T07:03:16.025Z,22.3
2017-09-05T07:04:16.668Z,22.3
2017-09-05T07:05:17.311Z,22.3
2017-09-05T07:06:17.952Z,22.3
2017-09-05T07:07:18.596Z,22.3
2017-09-05T07:08:19.238Z,22.3
2017-09-05T07:09:19.882Z,22.4
2017-09-05T07:10:20.524Z,22.4
2017-09-05T07:11:21.167Z,22.3
2017-09-05T07:12:21.809Z,22.3
2017-09-05T07:13:22.452Z,22.3
2017-09-05T07:14:23.102Z,22.3
2017-09-05T07:15:23.740Z,22.3
2017-09-05T07:16:24.534Z,22.3
2017-09-05T07:17:25.176Z,22.3
2017-09-05T07:18:25.819Z,22.4
2017-09-05T07:19:26.662Z,22.3
2017-09-05T07:20:27.304Z,22.3
2017-09-05T07:21:28.051Z,22.2
2017-09-05T07:22:28.691Z,21.8
2017-09-05T07:23:29.484Z,21.7
2017-09-05T07:24:30.126Z,21.5
2017-09-05T07:25:30.771Z,21.6
2017-09-05T07:26:31.414Z,21.6
2017-09-05T07:27:32.058Z,21.6
2017-09-05T07:28:32.702Z,21.6
2017-09-05T07:29:33.346Z,21.7
2017-09-05T07:30:33.989Z,21.5
2017-09-05T07:31:34.632Z,21.5
2017-09-05T07:32:35.277Z,21.5
2017-09-05T07:33:35.924Z,21.5
2017-09-05T07:34:36.715Z,21.6
2017-09-05T07:35:37.360Z,21.5
2017-09-05T07:36:38.001Z,21.4
2017-09-05T07:37:38.642Z,21.4
2017-09-05T07:38:39.285Z,21.4
2017-09-05T07:39:39.927Z,21.3
2017-09-05T07:40:40.570Z,21.3
2017-09-05T07:41:41.213Z,21.3
2017-09-05T07:42:41.857Z,21.2
2017-09-05T07:43:42.498Z,21.4
2017-09-05T07:44:43.140Z,21.4
2017-09-05T07:45:43.782Z,21.3
2017-09-05T07:46:44.424Z,21.3
2017-09-05T07:47:45.065Z,21.2
2017-09-05T07:48:45.858Z,21.3
2017-09-05T07:49:46.501Z,21.4
2017-09-05T07:50:47.143Z,21.4
2017-09-05T07:51:47.785Z,21.4
2017-09-05T07:52:48.426Z,21.3
2017-09-05T07:53:49.168Z,21.2
2017-09-05T07:54:49.809Z,21.2
2017-09-05T07:55:50.448Z,21.3
2017-09-05T07:56:51.191Z,21.2
2017-09-05T07:57:51.833Z,21.3
2017-09-05T07:58:52.477Z,21.4
2017-09-05T07:59:53.119Z,21.4
2017-09-05T08:00:53.761Z,21.4
2017-09-05T08:01:54.404Z,21.4
2017-09-05T08:02:55.048Z,21.3
2017-09-05T08:03:55.691Z,21.3
2017-09-05T08:04:56.435Z,21.3
2017-09-05T08:05:57.079Z,21.2
2017-09-05T08:06:57.719Z,21.0
2017-09-05T08:07:58.361Z,21.1
2017-09-05T08:08:59.103Z,21.3
2017-09-05T08:10:00.394Z,21.5
2017-09-05T08:11:01.388Z,21.6
2017-09-05T08:12:02.027Z,21.6
2017-09-05T08:13:02.669Z,21.6
2017-09-05T08:14:03.310Z,21.6
2017-09-05T08:15:03.955Z,21.7
2017-09-05T08:16:04.600Z,21.7
2017-09-05T08:17:05.445Z,21.8
2017-09-05T08:18:06.090Z,21.8
2017-09-05T08:19:06.733Z,21.9
2017-09-05T08:20:07.375Z,21.8
2017-09-05T08:21:08.019Z,21.9
2017-09-05T08:22:08.762Z,21.8
2017-09-05T08:23:09.402Z,21.9
2017-09-05T08:24:10.044Z,21.8
2017-09-05T08:25:10.687Z,21.9
2017-09-05T08:26:11.328Z,21.8
2017-09-05T08:27:11.972Z,21.8
2017-09-05T08:28:12.618Z,21.9
2017-09-05T08:29:13.256Z,22.0
2017-09-05T08:30:13.897Z,21.9
2017-09-05T08:31:14.546Z,22.0
2017-09-05T08:32:15.184Z,21.9
2017-09-05T08:33:15.828Z,22.0
2017-09-05T08:34:16.570Z,22.1
2017-09-05T08:35:17.214Z,22.0
2017-09-05T08:36:17.863Z,21.9
2017-09-05T08:37:18.507Z,22.0
2017-09-05T08:38:19.150Z,21.9
2017-09-05T08:39:19.792Z,21.9
2017-09-05T08:40:20.436Z,22.1
2017-09-05T08:41:21.078Z,22.0
2017-09-05T08:42:21.721Z,22.0
2017-09-05T08:43:22.363Z,22.0
2017-09-05T08:44:23.007Z,22.1
2017-09-05T08:45:23.649Z,22.0
2017-09-05T08:46:24.293Z,22.0
2017-09-05T08:47:24.935Z,22.0
2017-09-05T08:48:25.729Z,22.1
2017-09-05T08:49:26.372Z,22.1
2017-09-05T08:50:27.015Z,21.9
2017-09-05T08:51:27.659Z,22.1
2017-09-05T08:52:28.301Z,22.1
2017-09-05T08:53:29.045Z,22.0
2017-09-05T08:54:29.689Z,22.1
2017-09-05T08:55:30.334Z,22.1
2017-09-05T08:56:30.978Z,22.2
2017-09-05T08:57:31.621Z,22.1
2017-09-05T08:58:32.264Z,22.1
2017-09-05T08:59:32.905Z,22.1
2017-09-05T09:00:33.551Z,22.2
2017-09-05T09:01:34.193Z,22.2
2017-09-05T09:02:34.837Z,22.2
2017-09-05T09:03:35.481Z,22.1
2017-09-05T09:04:36.125Z,22.1
2017-09-05T09:05:36.767Z,22.1
2017-09-05T09:06:37.411Z,22.1
2017-09-05T09:07:38.052Z,22.1
2017-09-05T09:08:39.146Z,22.2
2017-09-05T09:09:39.791Z,22.2
2017-09-05T09:10:40.433Z,22.1
2017-09-05T09:11:41.077Z,22.3
2017-09-05T09:12:41.719Z,22.2
2017-09-05T09:13:42.364Z,22.2
2017-09-05T09:14:43.005Z,22.3
2017-09-05T09:15:43.900Z,22.3
2017-09-05T09:16:44.544Z,22.4
2017-09-05T09:17:45.188Z,22.5
2017-09-05T09:18:45.830Z,22.5
2017-09-05T09:19:46.476Z,22.6
2017-09-05T09:20:47.119Z,22.5
2017-09-05T09:21:48.115Z,22.5
2017-09-05T09:22:48.763Z,22.5
2017-09-05T09:23:49.398Z,22.5
2017-09-05T09:24:50.041Z,22.5
2017-09-05T09:25:50.684Z,22.5
2017-09-05T09:26:51.327Z,22.4
2017-09-05T09:27:51.971Z,22.5
2017-09-05T09:28:52.612Z,22.7
2017-09-05T09:29:53.256Z,22.6
2017-09-05T09:30:53.898Z,22.7
2017-09-05T09:31:54.544Z,22.8
2017-09-05T09:32:55.185Z,22.8
2017-09-05T09:33:56.080Z,22.8
2017-09-05T09:34:56.724Z,22.9
2017-09-05T09:35:57.373Z,22.9
2017-09-05T09:36:58.012Z,22.9
2017-09-05T09:37:58.657Z,22.9
2017-09-05T09:38:59.301Z,23.0
2017-09-05T09:40:00.296Z,23.0
2017-09-05T09:41:01.089Z,23.0
2017-09-05T09:42:01.733Z,23.1
2017-09-05T09:43:02.476Z,23.1
2017-09-05T09:44:03.120Z,23.1
2017-09-05T09:45:03.764Z,23.1
2017-09-05T09:46:04.510Z,23.1
2017-09-05T09:47:05.154Z,23.0
2017-09-05T09:48:05.797Z,23.1
2017-09-05T09:49:06.444Z,23.1
2017-09-05T09:50:07.086Z,23.1
2017-09-05T09:51:07.731Z,23.0
2017-09-05T09:52:08.424Z,23.0
2017-09-05T09:53:09.066Z,23.0
2017-09-05T09:54:09.961Z,23.1
2017-09-05T09:55:10.606Z,23.2
2017-09-05T09:56:11.255Z,23.2
2017-09-05T09:57:11.900Z,23.1
2017-09-05T09:58:12.546Z,23.2
2017-09-05T09:59:13.188Z,23.2
2017-09-05T10:00:13.829Z,23.3
2017-09-05T10:01:14.474Z,23.2
2017-09-05T10:02:15.117Z,23.2
2017-09-05T10:03:15.763Z,23.3
2017-09-05T10:04:16.404Z,23.3
2017-09-05T10:05:17.050Z,23.4
2017-09-05T10:06:17.694Z,23.3
2017-09-05T10:07:18.339Z,23.4
2017-09-05T10:08:18.983Z,23.4
2017-09-05T10:09:19.781Z,23.3
2017-09-05T10:10:20.421Z,23.3
2017-09-05T10:11:21.316Z,23.3
2017-09-05T10:12:21.963Z,23.4
2017-09-05T10:13:22.609Z,23.4
2017-09-05T10:14:23.256Z,23.4
2017-09-05T10:15:23.900Z,23.4
2017-09-05T10:16:24.544Z,23.5
2017-09-05T10:17:25.187Z,23.5
2017-09-05T10:18:25.831Z,23.5
2017-09-05T10:19:26.475Z,23.4
2017-09-05T10:20:27.118Z,23.4
2017-09-05T10:21:28.163Z,23.5
2017-09-05T10:22:28.807Z,23.4
2017-09-05T10:23:29.452Z,23.5
2017-09-05T10:24:30.097Z,23.5
2017-09-05T10:25:30.840Z,23.6
2017-09-05T10:26:31.483Z,23.5
2017-09-05T10:27:32.127Z,23.6
2017-09-05T10:28:32.770Z,23.6
2017-09-05T10:29:33.422Z,23.6
2017-09-05T10:30:34.074Z,23.6
2017-09-05T10:31:34.717Z,23.6
2017-09-05T10:32:35.362Z,23.7
2017-09-05T10:33:36.006Z,23.7
2017-09-05T10:34:36.905Z,23.7
2017-09-05T10:35:37.553Z,23.6
2017-09-05T10:36:38.396Z,23.7
2017-09-05T10:37:39.040Z,23.7
2017-09-05T10:38:39.883Z,23.6
2017-09-05T10:39:40.527Z,23.6
2017-09-05T10:40:41.279Z,23.7
2017-09-05T10:41:41.915Z,23.6
2017-09-05T10:42:42.557Z,23.7
2017-09-05T10:43:43.200Z,23.7
2017-09-05T10:44:43.844Z,23.6
2017-09-05T10:45:44.488Z,23.6
2017-09-05T10:46:45.130Z,23.6
2017-09-05T10:47:45.776Z,23.7
2017-09-05T10:48:46.420Z,23.6
2017-09-05T10:49:47.065Z,23.6
2017-09-05T10:50:47.708Z,23.7
2017-09-05T10:51:48.352Z,23.7
2017-09-05T10:52:48.996Z,23.7
2017-09-05T10:53:49.742Z,23.6
2017-09-05T10:54:50.387Z,23.6
2017-09-05T10:55:51.040Z,23.6
2017-09-05T10:56:51.680Z,23.6
2017-09-05T10:57:52.322Z,23.7
2017-09-05T10:58:52.970Z,23.7
2017-09-05T10:59:53.611Z,23.7
2017-09-05T11:00:54.257Z,23.7
2017-09-05T11:01:54.901Z,23.7
2017-09-05T11:02:55.548Z,23.7
2017-09-05T11:03:56.190Z,23.6
2017-09-05T11:04:56.841Z,23.7
2017-09-05T11:05:57.481Z,23.6
2017-09-05T11:06:58.127Z,23.7
2017-09-05T11:07:58.770Z,23.7
2017-09-05T11:08:59.766Z,23.7
2017-09-05T11:10:00.410Z,23.7
2017-09-05T11:11:01.055Z,23.8
2017-09-05T11:12:01.700Z,23.7
2017-09-05T11:13:02.345Z,23.8
2017-09-05T11:14:02.988Z,23.8
2017-09-05T11:15:03.631Z,23.9
2017-09-05T11:16:04.272Z,23.7
2017-09-05T11:17:04.915Z,23.8
2017-09-05T11:18:05.557Z,23.8
2017-09-05T11:19:06.201Z,23.8
2017-09-05T11:20:07.094Z,23.9
2017-09-05T11:21:07.738Z,23.8
2017-09-05T11:22:08.582Z,23.8
2017-09-05T11:23:09.374Z,23.8
2017-09-05T11:24:10.021Z,23.9
2017-09-05T11:25:10.920Z,23.9
2017-09-05T11:26:11.568Z,23.9
2017-09-05T11:27:12.212Z,23.9
2017-09-05T11:28:12.853Z,24.0
2017-09-05T11:29:13.498Z,24.0
2017-09-05T11:30:14.141Z,24.0
2017-09-05T11:31:14.785Z,23.8
2017-09-05T11:32:15.430Z,23.9
2017-09-05T11:33:16.073Z,23.8
2017-09-05T11:34:16.717Z,23.9
2017-09-05T11:35:17.361Z,24.0
2017-09-05T11:36:18.005Z,23.9
2017-09-05T11:37:19.199Z,24.0
2017-09-05T11:38:19.942Z,24.1
2017-09-05T11:39:20.585Z,24.0
2017-09-05T11:40:21.229Z,23.9
2017-09-05T11:41:21.874Z,24.0
2017-09-05T11:42:22.523Z,24.0
2017-09-05T11:43:23.163Z,24.0
2017-09-05T11:44:23.806Z,24.0
2017-09-05T11:45:24.451Z,24.0
2017-09-05T11:46:25.245Z,24.0
2017-09-05T11:47:25.888Z,24.0
2017-09-05T11:48:26.532Z,24.0
2017-09-05T11:49:27.175Z,23.9
2017-09-05T11:50:27.816Z,23.9
2017-09-05T11:51:28.458Z,24.0
2017-09-05T11:52:29.100Z,24.0
2017-09-05T11:53:29.744Z,24.0
2017-09-05T11:54:30.388Z,24.0
2017-09-05T11:55:31.031Z,23.9
2017-09-05T11:56:31.674Z,23.9
2017-09-05T11:57:32.319Z,23.9
2017-09-05T11:58:32.963Z,23.9
2017-09-05T11:59:33.609Z,23.9
2017-09-05T12:00:34.253Z,24.0
2017-09-05T12:01:34.900Z,24.0
2017-09-05T12:02:35.544Z,24.0
2017-09-05T12:03:36.196Z,24.0
2017-09-05T12:04:36.833Z,24.0
2017-09-05T12:05:37.479Z,24.0
2017-09-05T12:06:38.122Z,24.0
2017-09-05T12:07:38.768Z,24.0
2017-09-05T12:08:40.112Z,23.9
2017-09-05T12:09:40.759Z,24.0
2017-09-05T12:10:41.404Z,23.9
2017-09-05T12:11:42.049Z,24.0
2017-09-05T12:12:42.695Z,24.0
2017-09-05T12:13:43.339Z,23.9
2017-09-05T12:14:43.986Z,23.9
2017-09-05T12:15:44.630Z,23.9
2017-09-05T12:16:45.278Z,24.0
2017-09-05T12:17:46.071Z,23.9
2017-09-05T12:18:46.715Z,23.9
2017-09-05T12:19:47.359Z,23.9
2017-09-05T12:20:48.003Z,23.9
2017-09-05T12:21:48.799Z,23.9
2017-09-05T12:22:49.445Z,23.9
2017-09-05T12:23:50.190Z,24.0
2017-09-05T12:24:50.835Z,24.0
2017-09-05T12:25:51.481Z,24.0
2017-09-05T12:26:52.126Z,24.0
2017-09-05T12:27:52.771Z,23.9
2017-09-05T12:28:53.415Z,23.9
2017-09-05T12:29:54.412Z,24.0
2017-09-05T12:30:55.059Z,24.0
2017-09-05T12:31:55.700Z,24.0
2017-09-05T12:32:56.595Z,23.9
2017-09-05T12:33:57.240Z,24.0
2017-09-05T12:34:57.985Z,24.0
2017-09-05T12:35:58.630Z,23.9
2017-09-05T12:36:59.376Z,24.0
2017-09-05T12:38:00.021Z,24.0
2017-09-05T12:39:00.672Z,24.0
2017-09-05T12:40:01.310Z,24.0
2017-09-05T12:41:01.954Z,24.0
2017-09-05T12:42:02.600Z,24.0
2017-09-05T12:43:03.243Z,24.1
2017-09-05T12:44:03.887Z,24.0
2017-09-05T12:45:04.530Z,24.0
2017-09-05T12:46:05.173Z,24.0
2017-09-05T12:47:05.966Z,24.0
2017-09-05T12:48:06.611Z,23.9
2017-09-05T12:49:07.253Z,24.0
2017-09-05T12:50:07.897Z,23.9
2017-09-05T12:51:08.543Z,23.9
2017-09-05T12:52:09.189Z,23.9
2017-09-05T12:53:09.833Z,24.0
2017-09-05T12:54:10.829Z,24.0
2017-09-05T12:55:11.473Z,24.0
2017-09-05T12:56:12.317Z,23.9
2017-09-05T12:57:12.962Z,24.0
2017-09-05T12:58:13.607Z,23.9
2017-09-05T12:59:14.253Z,24.0
2017-09-05T13:00:14.899Z,24.0
2017-09-05T13:01:15.543Z,24.0
2017-09-05T13:02:16.189Z,24.0
2017-09-05T13:03:16.833Z,23.9
2017-09-05T13:04:17.478Z,23.9
2017-09-05T13:05:18.222Z,24.0
2017-09-05T13:06:18.868Z,24.0
2017-09-05T13:07:19.514Z,24.0
2017-09-05T13:08:20.158Z,23.9
2017-09-05T13:09:21.002Z,23.9
2017-09-05T13:10:21.649Z,24.0
2017-09-05T13:11:22.294Z,23.9
2017-09-05T13:12:22.957Z,24.0
2017-09-05T13:13:23.590Z,24.0
2017-09-05T13:14:24.235Z,24.0
2017-09-05T13:15:24.978Z,24.0
2017-09-05T13:16:25.623Z,23.9
2017-09-05T13:17:26.267Z,24.0
2017-09-05T13:18:26.912Z,24.0
2017-09-05T13:19:27.559Z,23.9
2017-09-05T13:20:28.204Z,24.0
2017-09-05T13:21:29.751Z,23.9
2017-09-05T13:22:30.647Z,24.0
2017-09-05T13:23:31.445Z,24.0
2017-09-05T13:24:32.093Z,24.0
2017-09-05T13:25:32.736Z,24.0
2017-09-05T13:26:33.380Z,24.0
2017-09-05T13:27:34.025Z,24.0